Time;durP1;ratioP1;P1;durP2;ratioP2;P2;SDS_P1;SDS_P2;PMS_P1;PMS_P2;Temp;Humidity;BMP_temperature;BMP_pressure;BME280_temperature;BME280_humidity;BME280_pressure;Samples;Min_cycle;Max_cycle;Signal;HPM_P1;HPM_P2
2023/03/25 00:02:25;;;;;;;5.40;4.60;;;;;;;11.16;80.97;95625.60;109189;1263;114558;-83
2023/03/25 00:05:12;;;;;;;5.90;4.90;;;;;;;11.06;81.10;95629.56;109391;1269;22475;-82
2023/03/25 00:07:54;;;;;;;5.00;3.70;;;;;;;10.96;81.30;95637.01;109316;1266;22528;-82
2023/03/25 00:10:30;;;;;;;5.70;4.70;;;;;;;10.92;81.64;95644.07;109320;1268;22532;-83
2023/03/25 00:13:14;;;;;;;;;;;;;;;;;;;;;
2023/03/25 00:15:57;;;;;;;6.40;4.50;;;;;;;10.88;81.78;95631.54;109301;1272;22515;-83
2023/03/25 00:18:33;;;;;;;5.30;4.20;;;;;;;10.84;82.07;95629.20;109399;1271;23289;-83
2023/03/25 00:21:10;;;;;;;5.90;4.20;;;;;;;10.82;81.87;95630.05;109229;1271;120307;-81
2023/03/25 00:23:43;;;;;;;7.00;4.30;;;;;;;10.81;81.56;95626.99;109345;1266;23208;-81
2023/03/25 00:26:18;;;;;;;5.80;4.20;;;;;;;10.83;81.41;95630.13;109340;1271;22586;-81
2023/03/25 00:28:51;;;;;;;6.90;4.70;;;;;;;10.87;81.08;95628.35;109214;1273;22514;-82
2023/03/25 00:31:38;;;;;;;5.70;4.80;;;;;;;10.89;81.15;95624.05;107894;1272;1787908;-82
2023/03/25 00:34:15;;;;;;;6.90;4.70;;;;;;;10.89;81.07;95616.20;109351;1272;25411;-82
2023/03/25 00:36:59;;;;;;;5.40;4.10;;;;;;;10.87;80.86;95614.04;109235;1272;25413;-82
2023/03/25 00:39:39;;;;;;;6.30;4.20;;;;;;;10.84;80.84;95608.80;109255;1265;24309;-82
2023/03/25 00:42:17;;;;;;;;;;;;;;;10.80;80.80;95613.23;109290;1266;36195;-81
2023/03/25 00:44:58;;;;;;;6.10;4.50;;;;;;;10.78;81.23;95609.16;109278;1266;22598;-82
2023/03/25 00:47:41;;;;;;;5.30;4.20;;;;;;;10.74;81.20;95608.09;109191;1270;24154;-82
2023/03/25 00:50:16;;;;;;;4.10;3.20;;;;;;;10.74;81.20;95604.01;109231;1266;22548;-82
2023/03/25 00:52:50;;;;;;;5.10;3.40;;;;;;;10.76;81.16;95600.02;109216;1263;68836;-82
2023/03/25 00:55:22;;;;;;;3.90;3.50;;;;;;;10.78;81.03;95599.66;109166;1267;24400;-82
2023/03/25 00:57:53;;;;;;;5.20;3.80;;;;;;;10.80;80.98;95596.95;109247;1272;22525;-82
2023/03/25 01:00:24;;;;;;;5.60;4.00;;;;;;;10.81;80.87;95588.97;109241;1266;22496;-82
2023/03/25 01:03:02;;;;;;;5.20;3.80;;;;;;;10.82;80.79;95586.14;109140;1267;120384;-82
2023/03/25 01:05:49;;;;;;;5.40;3.90;;;;;;;10.82;80.72;95582.02;109439;1266;22758;-82
2023/03/25 01:08:31;;;;;;;5.30;4.00;;;;;;;10.80;80.55;95579.67;109325;1272;22512;-82
2023/03/25 01:11:17;;;;;;;3.80;3.20;;;;;;;10.79;80.61;95583.69;109278;1272;45683;-82
2023/03/25 01:13:58;;;;;;;4.60;3.70;;;;;;;10.78;80.65;95569.75;109267;1272;22513;-82
2023/03/25 01:16:32;;;;;;;;;;;;;;;10.77;80.66;95571.71;109242;1273;22429;-82
2023/03/25 01:19:16;;;;;;;3.50;2.80;;;;;;;10.74;80.70;95572.95;109263;1269;25411;-82
2023/03/25 01:21:58;;;;;;;3.70;3.30;;;;;;;10.74;80.66;95569.40;109257;1266;32388;-82
2023/03/25 01:24:31;;;;;;;7.10;3.20;;;;;;;10.77;80.57;95566.04;109237;1267;22591;-82
2023/03/25 01:27:06;;;;;;;6.00;3.20;;;;;;;10.79;80.42;95562.64;109255;1266;22514;-82
2023/03/25 01:29:53;;;;;;;;;;;;;;;;;;;;;
2023/03/25 01:32:24;;;;;;;5.40;3.30;;;;;;;10.80;80.34;95564.61;109139;1270;59664;-81
2023/03/25 01:34:57;;;;;;;4.90;3.50;;;;;;;10.79;80.27;95567.41;109145;1272;25401;-82
2023/03/25 01:37:32;;;;;;;3.60;3.00;;;;;;;10.79;80.22;95565.77;109157;1266;22541;-81
2023/03/25 01:40:10;;;;;;;4.40;3.10;;;;;;;10.80;80.13;95563.70;109201;1272;22580;-82
2023/03/25 01:42:46;;;;;;;3.50;3.10;;;;;;;10.81;80.00;95564.11;109181;1268;63503;-82
2023/03/25 01:45:28;;;;;;;4.50;3.50;;;;;;;10.83;79.93;95563.27;109309;1271;25225;-82
2023/03/25 01:48:17;;;;;;;3.70;3.20;;;;;;;10.83;79.83;95557.04;109304;1266;23104;-82
2023/03/25 01:50:58;;;;;;;4.10;3.20;;;;;;;10.86;79.90;95550.52;109259;1271;22867;-82
2023/03/25 01:53:36;;;;;;;3.90;3.50;;;;;;;10.88;79.80;95554.70;109347;1272;22459;-82
2023/03/25 01:56:10;;;;;;;5.20;4.00;;;;;;;10.90;79.75;95547.35;109340;1272;22749;-82
2023/03/25 01:58:47;;;;;;;4.50;3.40;;;;;;;10.92;79.62;95545.80;109311;1271;23205;-82
2023/03/25 02:01:30;;;;;;;3.90;3.50;;;;;;;10.93;79.72;95543.73;107547;1271;2139878;-82
2023/03/25 02:04:11;;;;;;;5.90;3.90;;;;;;;10.89;79.62;95542.95;109252;1272;22549;-82
2023/03/25 02:06:49;;;;;;;4.00;3.60;;;;;;;10.87;79.68;95546.19;109261;1271;22518;-82
2023/03/25 02:09:25;;;;;;;5.70;4.00;;;;;;;10.88;79.63;95546.38;109337;1266;25440;-82
2023/03/25 02:11:56;;;;;;;3.80;3.30;;;;;;;10.89;79.68;95544.83;109216;1267;94323;-82
2023/03/25 02:14:40;;;;;;;3.30;3.00;;;;;;;10.90;79.75;95544.58;109285;1272;24202;-82
2023/03/25 02:17:27;;;;;;;4.50;3.40;;;;;;;10.91;79.79;95546.29;109308;1266;25069;-82
2023/03/25 02:20:53;;;;;;;5.00;3.80;;;;;;;10.93;79.76;95545.14;109361;1271;23251;-83
2023/03/25 02:23:57;;;;;;;4.20;3.30;;;;;;;10.92;79.91;95549.98;109320;1271;84047;-82
2023/03/25 02:27:13;;;;;;;5.60;3.60;;;;;;;10.90;80.34;95559.70;109390;1271;25256;-83
2023/03/25 02:30:19;;;;;;;4.10;3.00;;;;;;;10.87;80.94;95566.66;109306;1268;22507;-82
2023/03/25 02:33:13;;;;;;;3.60;3.00;;;;;;;10.89;81.95;95561.20;109110;1271;46474;-83
2023/03/25 02:36:01;;;;;;;3.30;2.60;;;;;;;10.86;82.48;95561.17;109327;1270;22459;-83
2023/03/25 02:38:40;;;;;;;4.00;3.30;;;;;;;10.79;83.32;95565.85;109284;1269;22719;-83
2023/03/25 02:41:26;;;;;;;3.60;3.10;;;;;;;10.74;83.77;95561.56;109166;1266;63833;-83
2023/03/25 02:44:11;;;;;;;4.90;3.10;;;;;;;10.70;84.34;95565.24;109322;1266;23313;-82
2023/03/25 02:46:46;;;;;;;4.30;3.00;;;;;;;10.65;84.91;95568.13;109353;1264;22519;-83
2023/03/25 02:49:23;;;;;;;4.40;3.20;;;;;;;10.59;85.91;95568.45;109237;1272;25355;-83
2023/03/25 02:52:09;;;;;;;4.10;3.60;;;;;;;10.51;86.44;95567.79;109296;1266;61541;-83
2023/03/25 02:54:46;;;;;;;5.30;3.60;;;;;;;10.45;86.92;95564.67;109330;1271;23008;-83
2023/03/25 02:57:20;;;;;;;4.60;3.70;;;;;;;10.44;86.76;95562.45;109251;1266;22490;-82
2023/03/25 02:59:55;;;;;;;4.70;3.40;;;;;;;10.48;87.05;95563.16;109345;1266;23856;-83
2023/03/25 03:02:32;;;;;;;4.10;3.40;;;;;;;10.49;87.10;95565.25;109246;1263;91762;-83
2023/03/25 03:05:18;;;;;;;3.60;3.20;;;;;;;10.48;87.08;95570.30;109211;1272;23241;-83
2023/03/25 03:08:04;;;;;;;4.10;3.60;;;;;;;10.47;87.12;95568.84;109363;1271;22529;-82
2023/03/25 03:10:43;;;;;;;4.50;3.80;;;;;;;10.45;87.29;95575.96;109342;1271;24311;-82
2023/03/25 03:13:19;;;;;;;;;;;;;;;10.38;87.88;95575.88;109184;1266;124536;-82
2023/03/25 03:16:12;;;;;;;5.80;3.70;;;;;;;10.27;88.50;95578.91;109355;1264;25488;-82
2023/03/25 03:18:57;;;;;;;7.30;4.50;;;;;;;10.14;89.21;95579.54;109293;1272;24017;-83
2023/03/25 03:21:41;;;;;;;5.70;4.20;;;;;;;10.08;89.70;95580.83;109179;1264;81296;-82
2023/03/25 03:24:21;;;;;;;4.30;3.80;;;;;;;10.04;90.11;95582.89;109273;1266;22524;-82
2023/03/25 03:27:10;;;;;;;6.00;4.30;;;;;;;10.02;90.35;95581.20;109270;1272;22514;-82
2023/03/25 03:30:16;;;;;;;4.90;4.20;;;;;;;10.01;90.53;95584.77;109248;1272;23957;-82
2023/03/25 03:32:57;;;;;;;4.70;4.00;;;;;;;10.05;90.45;95587.33;109278;1264;39543;-82
2023/03/25 03:35:49;;;;;;;4.20;3.80;;;;;;;10.09;90.56;95591.15;109296;1268;22586;-82
2023/03/25 03:38:26;;;;;;;5.40;4.20;;;;;;;10.10;90.48;95594.77;109302;1271;24209;-82
2023/03/25 03:41:11;;;;;;;4.60;3.70;;;;;;;10.13;90.58;95599.27;109333;1272;25316;-82
2023/03/25 03:43:49;;;;;;;5.40;3.90;;;;;;;10.15;91.02;95600.23;109252;1266;25198;-82
2023/03/25 03:46:34;;;;;;;4.40;3.80;;;;;;;10.16;91.31;95603.24;109438;1272;22510;-82
2023/03/25 03:49:10;;;;;;;5.60;4.10;;;;;;;10.16;91.26;95604.89;109227;1271;22565;-82
2023/03/25 03:51:49;;;;;;;4.70;4.20;;;;;;;10.15;91.26;95602.64;109267;1272;47086;-82
2023/03/25 03:54:28;;;;;;;4.30;3.90;;;;;;;10.16;91.21;95602.56;109310;1266;23824;-82
2023/03/25 03:57:08;;;;;;;5.30;4.30;;;;;;;10.18;91.26;95605.12;109310;1266;25437;-82
2023/03/25 04:00:01;;;;;;;5.40;4.00;;;;;;;10.20;91.32;95608.98;105426;1269;5093612;-82
2023/03/25 04:02:40;;;;;;;4.70;4.10;;;;;;;10.25;91.35;95605.13;107902;1266;1763718;-82
2023/03/25 04:05:35;;;;;;;6.20;4.50;;;;;;;10.31;91.38;95609.77;109232;1266;25068;-82
2023/03/25 04:08:25;;;;;;;4.90;3.90;;;;;;;10.34;91.42;95615.52;109258;1272;22609;-82
2023/03/25 04:11:08;;;;;;;4.70;4.20;;;;;;;10.36;91.50;95614.72;109217;1271;22532;-82
2023/03/25 04:13:49;;;;;;;5.30;4.20;;;;;;;10.36;91.25;95613.23;107654;1266;2131983;-82
2023/03/25 04:16:31;;;;;;;5.30;4.40;;;;;;;10.37;91.12;95613.48;109295;1266;23834;-82
2023/03/25 04:19:13;;;;;;;5.20;4.00;;;;;;;10.37;91.20;95618.13;109284;1264;22465;-82
2023/03/25 04:21:49;;;;;;;4.40;4.00;;;;;;;10.37;91.10;95620.40;109260;1272;26803;-82
2023/03/25 04:24:40;;;;;;;5.60;4.60;;;;;;;10.37;91.02;95619.78;109218;1272;23944;-82
2023/03/25 04:27:15;;;;;;;5.30;4.80;;;;;;;10.38;90.99;95619.98;109211;1266;24359;-82
2023/03/25 04:29:51;;;;;;;6.80;5.00;;;;;;;10.38;91.06;95621.81;109262;1272;22560;-82
2023/03/25 04:32:38;;;;;;;7.40;6.70;;;;;;;10.38;91.31;95625.34;107809;1272;1890416;-82
2023/03/25 04:35:13;;;;;;;8.40;7.40;;;;;;;10.39;91.56;95632.88;109224;1272;22521;-82
2023/03/25 04:37:56;;;;;;;7.10;6.40;;;;;;;10.38;91.46;95627.95;109223;1265;24307;-82
2023/03/25 04:40:32;;;;;;;10.00;9.00;;;;;;;10.38;91.61;95634.90;109250;1272;24002;-82
2023/03/25 04:43:24;;;;;;;11.60;10.40;;;;;;;10.37;91.90;95642.63;107840;1267;1702532;-82
2023/03/25 04:46:04;;;;;;;11.70;10.50;;;;;;;10.36;91.39;95627.01;109234;1271;22550;-82
2023/03/25 04:48:48;;;;;;;11.00;9.90;;;;;;;10.38;91.06;95623.84;109291;1271;22682;-82
2023/03/25 04:52:04;;;;;;;;;;;;;;;;;;;;;
2023/03/25 04:54:57;;;;;;;9.00;8.10;;;;;;;10.34;90.21;95631.73;109234;1266;22616;-82
2023/03/25 04:57:35;;;;;;;8.70;7.60;;;;;;;10.33;89.50;95632.48;109268;1265;22576;-82
2023/03/25 05:00:31;;;;;;;8.50;7.10;;;;;;;10.32;89.18;95637.45;109232;1272;23229;-82
2023/03/25 05:03:07;;;;;;;8.60;7.00;;;;;;;10.30;88.79;95644.58;109214;1270;86282;-82
2023/03/25 05:05:43;;;;;;;10.00;6.90;;;;;;;10.28;88.28;95647.02;109247;1266;23185;-82
2023/03/25 05:08:30;;;;;;;8.70;7.20;;;;;;;10.28;88.03;95642.68;109275;1250;24178;-82
2023/03/25 05:11:16;;;;;;;9.60;8.60;;;;;;;10.23;88.01;95650.02;109281;1266;22516;-82
2023/03/25 05:14:03;;;;;;;11.70;8.50;;;;;;;10.21;88.12;95657.96;107888;1266;1859964;-82
2023/03/25 05:16:37;;;;;;;11.20;10.10;;;;;;;10.20;88.00;95661.48;109272;1269;22562;-82
2023/03/25 05:19:21;;;;;;;9.30;7.90;;;;;;;10.15;88.07;95655.54;109263;1269;22515;-82
2023/03/25 05:21:58;;;;;;;7.90;6.60;;;;;;;10.08;87.65;95659.33;109281;1260;52655;-82
2023/03/25 05:24:38;;;;;;;8.40;5.60;;;;;;;10.06;87.29;95654.86;109249;1266;22580;-83
2023/03/25 05:27:22;;;;;;;8.90;6.90;;;;;;;10.05;87.15;95667.73;109269;1272;25489;-82
2023/03/25 05:30:28;;;;;;;;;;;;;;;;;;;;;
2023/03/25 05:36:18;;;;;;;4.60;3.30;;;;;;;9.78;85.99;95675.58;109323;1271;22517;-82
2023/03/25 05:38:57;;;;;;;6.10;3.70;;;;;;;9.66;86.09;95673.77;109287;1269;24180;-82
2023/03/25 05:41:44;;;;;;;5.50;3.80;;;;;;;9.57;86.37;95682.04;109225;1265;31189;-82
2023/03/25 05:44:21;;;;;;;4.70;3.80;;;;;;;9.52;86.48;95681.63;109261;1272;23539;-82
2023/03/25 05:47:02;;;;;;;4.80;3.70;;;;;;;9.47;86.62;95683.86;109297;1266;22468;-82
2023/03/25 05:49:41;;;;;;;3.60;2.90;;;;;;;9.44;86.67;95682.39;109299;1266;22515;-82
2023/03/25 05:52:12;;;;;;;4.50;3.80;;;;;;;9.39;86.93;95690.08;105322;1268;5039599;-82
2023/03/25 05:54:50;;;;;;;5.70;3.40;;;;;;;9.34;86.97;95691.02;109269;1266;22515;-82
2023/03/25 05:57:29;;;;;;;5.30;3.40;;;;;;;9.33;87.00;95689.63;109380;1266;22643;-82
2023/03/25 06:00:03;;;;;;;5.30;3.90;;;;;;;9.30;86.95;95687.58;109291;1269;22488;-82
2023/03/25 06:02:42;;;;;;;5.50;4.00;;;;;;;9.30;86.84;95691.38;109219;1266;74260;-82
2023/03/25 06:05:22;;;;;;;5.10;3.70;;;;;;;9.28;86.71;95692.34;109263;1266;22521;-83
2023/03/25 06:08:02;;;;;;;5.00;3.20;;;;;;;9.26;86.76;95696.40;109276;1266;24188;-83
2023/03/25 06:10:44;;;;;;;6.60;4.40;;;;;;;9.23;86.72;95700.05;109288;1272;22571;-82
2023/03/25 06:13:20;;;;;;;6.50;4.80;;;;;;;9.19;86.64;95702.30;109193;1271;38309;-83
2023/03/25 06:15:56;;;;;;;6.80;4.40;;;;;;;9.15;86.63;95708.82;109280;1271;22571;-83
2023/03/25 06:18:29;;;;;;;7.70;4.70;;;;;;;9.16;86.66;95711.66;109254;1266;22594;-85
2023/03/25 06:21:02;;;;;;;5.60;4.00;;;;;;;9.18;86.39;95712.96;109294;1272;22490;-85
2023/03/25 06:23:38;;;;;;;5.30;4.10;;;;;;;9.20;86.63;95722.79;109237;1268;58945;-84
2023/03/25 06:26:09;;;;;;;5.80;4.70;;;;;;;9.23;87.23;95726.13;109261;1271;22516;-84
2023/03/25 06:28:44;;;;;;;5.60;4.20;;;;;;;9.21;87.88;95726.63;109270;1271;22533;-85
2023/03/25 06:31:35;;;;;;;7.30;4.60;;;;;;;9.19;88.17;95728.25;109311;1269;24212;-82
2023/03/25 06:38:09;;;;;;;6.60;4.50;;;;;;;9.16;88.80;95729.33;108702;1272;22527;-82
2023/03/25 06:40:46;;;;;;;7.00;5.40;;;;;;;9.10;88.86;95731.78;109255;1251;22518;-82
2023/03/25 06:43:30;;;;;;;;;;;;;;;;;;;;;
2023/03/25 06:46:18;;;;;;;8.40;5.30;;;;;;;9.01;88.92;95740.56;109314;1266;23181;-83
2023/03/25 06:48:50;;;;;;;7.90;5.50;;;;;;;8.98;88.81;95739.13;109315;1266;22557;-85
2023/03/25 06:51:47;;;;;;;6.70;5.50;;;;;;;8.96;88.84;95736.98;109318;1271;25297;-85
2023/03/25 06:54:29;;;;;;;6.80;5.60;;;;;;;8.95;89.05;95738.38;109195;1271;22700;-84
2023/03/25 06:57:03;;;;;;;7.20;4.90;;;;;;;8.96;88.99;95737.11;109288;1265;25051;-84
2023/03/25 06:59:40;;;;;;;8.80;5.70;;;;;;;8.98;88.66;95737.11;109306;1271;23378;-84
2023/03/25 07:02:22;;;;;;;7.80;5.60;;;;;;;9.01;88.28;95740.25;107897;1262;1809778;-85
2023/03/25 07:04:58;;;;;;;10.10;5.20;;;;;;;9.07;88.48;95742.53;109330;1271;22571;-85
2023/03/25 07:07:31;;;;;;;7.20;5.00;;;;;;;9.12;88.44;95740.17;109301;1268;23469;-84
2023/03/25 07:10:02;;;;;;;8.40;5.20;;;;;;;9.09;88.21;95744.02;109337;1267;22478;-85
2023/03/25 07:12:41;;;;;;;7.90;5.00;;;;;;;9.05;88.19;95738.75;109297;1266;83330;-85
2023/03/25 07:15:28;;;;;;;7.70;5.00;;;;;;;9.01;88.28;95737.38;109365;1271;22513;-86
2023/03/25 07:18:06;;;;;;;6.00;4.70;;;;;;;9.03;88.18;95740.05;109327;1266;22506;-86
2023/03/25 07:20:41;;;;;;;6.90;5.20;;;;;;;9.05;88.32;95739.66;109309;1265;23120;-85
2023/03/25 07:23:33;;;;;;;7.10;5.20;;;;;;;9.08;88.53;95735.58;105370;1271;5097023;-84
2023/03/25 07:26:19;;;;;;;6.60;4.80;;;;;;;9.13;88.61;95727.61;109319;1268;23734;-85
2023/03/25 07:28:53;;;;;;;8.10;5.10;;;;;;;9.17;88.61;95724.17;109334;1268;22467;-84
2023/03/25 07:31:38;;;;;;;8.40;5.30;;;;;;;9.19;88.75;95724.52;109318;1272;22497;-84
2023/03/25 07:34:19;;;;;;;7.80;5.20;;;;;;;9.23;88.89;95727.98;105177;1269;5308291;-84
2023/03/25 07:36:51;;;;;;;7.90;5.10;;;;;;;9.24;88.85;95721.39;109337;1271;22555;-83
2023/03/25 07:39:24;;;;;;;7.00;5.50;;;;;;;9.22;88.67;95729.69;109332;1271;22528;-85
2023/03/25 07:41:56;;;;;;;7.40;5.70;;;;;;;9.22;88.78;95723.80;109340;1250;22579;-84
2023/03/25 07:44:31;;;;;;;7.30;5.00;;;;;;;9.24;88.65;95729.12;109311;1264;47958;-84
2023/03/25 07:47:10;;;;;;;6.30;4.90;;;;;;;9.28;88.66;95729.79;109298;1269;22651;-85
2023/03/25 07:49:46;;;;;;;7.70;5.10;;;;;;;9.32;88.43;95732.54;109453;1271;22670;-85
2023/03/25 07:52:22;;;;;;;9.90;6.00;;;;;;;9.38;88.26;95732.20;104978;1271;5544056;-83
2023/03/25 07:54:54;;;;;;;7.20;5.60;;;;;;;9.51;88.24;95733.88;109169;1272;22476;-84
2023/03/25 07:57:32;;;;;;;7.60;6.00;;;;;;;9.61;87.83;95733.55;109262;1265;25290;-83
2023/03/25 08:00:04;;;;;;;7.40;6.20;;;;;;;9.68;87.51;95732.73;109273;1271;23740;-84
2023/03/25 08:02:38;;;;;;;7.80;5.90;;;;;;;9.79;87.32;95731.77;109250;1269;38371;-84
2023/03/25 08:05:19;;;;;;;8.20;6.70;;;;;;;9.93;87.17;95737.81;109358;1271;22735;-84
2023/03/25 08:08:01;;;;;;;7.10;6.00;;;;;;;10.08;87.13;95735.17;109472;1271;22614;-83
2023/03/25 08:10:35;;;;;;;7.90;6.30;;;;;;;10.16;86.32;95737.47;109458;1271;22614;-84
2023/03/25 08:13:17;;;;;;;7.00;6.30;;;;;;;10.11;85.78;95736.28;110725;1271;82745;-83
2023/03/25 08:15:49;;;;;;;7.60;6.60;;;;;;;10.20;86.21;95734.27;110190;1272;22603;-83
2023/03/25 08:18:38;;;;;;;7.10;6.40;;;;;;;10.33;86.08;95733.64;109436;1266;22589;-83
2023/03/25 08:21:12;;;;;;;8.80;6.10;;;;;;;10.40;85.75;95728.03;109323;1266;22684;-83
2023/03/25 08:23:43;;;;;;;7.30;6.50;;;;;;;10.35;85.11;95728.61;105380;1266;5128716;-83
2023/03/25 08:26:16;;;;;;;8.80;7.00;;;;;;;10.36;85.68;95729.48;109301;1271;24186;-83
2023/03/25 08:28:53;;;;;;;9.60;7.40;;;;;;;10.49;85.54;95732.60;109261;1272;22585;-84
2023/03/25 08:31:29;;;;;;;8.50;6.40;;;;;;;10.53;85.27;95732.88;109226;1272;22491;-84
2023/03/25 08:34:05;;;;;;;8.90;7.90;;;;;;;10.53;85.37;95733.94;109234;1272;56713;-84
2023/03/25 08:36:41;;;;;;;8.40;6.50;;;;;;;10.62;85.46;95739.48;109257;1272;22515;-83
2023/03/25 08:39:16;;;;;;;9.10;7.80;;;;;;;10.56;84.78;95736.73;109261;1269;23820;-84
2023/03/25 08:41:57;;;;;;;8.10;7.30;;;;;;;10.57;85.04;95740.96;109203;1268;23833;-83
2023/03/25 08:44:33;;;;;;;7.70;6.90;;;;;;;10.69;85.22;95748.38;109191;1266;91382;-83
2023/03/25 08:47:07;;;;;;;7.70;6.50;;;;;;;10.76;85.09;95745.27;109364;1271;22514;-83
2023/03/25 08:49:46;;;;;;;7.00;6.00;;;;;;;10.82;85.00;95741.14;109259;1272;22561;-83
2023/03/25 08:52:35;;;;;;;6.90;6.10;;;;;;;10.99;84.65;95739.52;109260;1269;24483;-84
2023/03/25 08:55:10;;;;;;;7.50;6.10;;;;;;;10.99;83.81;95739.67;109260;1259;25301;-83
2023/03/25 08:58:01;;;;;;;6.90;5.70;;;;;;;11.02;83.86;95738.13;109046;1269;22533;-83
2023/03/25 09:00:54;;;;;;;9.50;7.40;;;;;;;10.99;83.17;95738.30;109203;1266;22575;-83
2023/03/25 09:03:55;;;;;;;;;;;;;;;;;;;;;
2023/03/25 09:06:33;;;;;;;6.40;5.50;;;;;;;11.20;84.20;95731.63;109203;1272;22625;-83
2023/03/25 09:09:09;;;;;;;7.10;5.80;;;;;;;11.99;84.13;95729.17;109317;1265;22496;-83
2023/03/25 09:11:59;;;;;;;7.10;5.10;;;;;;;12.14;81.65;95725.34;109395;1268;22530;-82
2023/03/25 09:14:40;;;;;;;8.90;6.10;;;;;;;11.84;80.16;95725.35;106844;1267;3352528;-82
2023/03/25 09:17:17;;;;;;;7.50;5.70;;;;;;;11.94;81.12;95725.17;109325;1269;22645;-82
2023/03/25 09:19:49;;;;;;;8.00;5.20;;;;;;;12.04;80.48;95722.66;109264;1272;22550;-83
2023/03/25 09:22:20;;;;;;;8.60;5.40;;;;;;;12.45;80.73;95715.95;109293;1262;22607;-82
2023/03/25 09:25:02;;;;;;;7.10;5.20;;;;;;;12.89;79.90;95709.48;109237;1266;33631;-81
2023/03/25 09:27:39;;;;;;;6.00;4.60;;;;;;;13.35;79.03;95696.27;109285;1269;25319;-82
2023/03/25 09:30:47;;;;;;;7.20;5.00;;;;;;;13.67;78.20;95695.92;109235;1272;22300;-83
2023/03/25 09:33:26;;;;;;;5.90;4.10;;;;;;;13.33;75.64;95693.00;109224;1269;82640;-82
2023/03/25 09:36:04;;;;;;;9.40;4.70;;;;;;;13.28;75.57;95686.19;109290;1272;22576;-82
2023/03/25 09:38:35;;;;;;;4.50;3.90;;;;;;;13.23;74.93;95686.98;109242;1272;22815;-82
2023/03/25 09:41:26;;;;;;;6.40;4.70;;;;;;;13.22;74.49;95681.20;109303;1272;22511;-82
2023/03/25 09:44:15;;;;;;;11.00;6.50;;;;;;;13.18;73.93;95679.05;107920;1269;1793277;-81
2023/03/25 09:46:51;;;;;;;6.80;5.10;;;;;;;13.45;73.62;95673.57;109289;1272;24275;-78
2023/03/25 09:49:30;;;;;;;6.60;4.10;;;;;;;13.65;72.85;95667.98;109218;1269;22462;-77
2023/03/25 09:52:02;;;;;;;6.50;4.10;;;;;;;13.92;72.87;95666.37;109213;1266;23262;-78
2023/03/25 09:54:39;;;;;;;7.50;4.50;;;;;;;14.11;70.34;95662.02;109092;1266;53904;-77
2023/03/25 09:57:17;;;;;;;6.10;3.70;;;;;;;13.97;70.33;95666.34;109102;1273;22603;-78
2023/03/25 09:59:51;;;;;;;14.00;9.90;;;;;;;14.25;69.98;95656.98;109133;1250;22679;-77
2023/03/25 10:02:42;;;;;;;7.30;3.90;;;;;;;14.26;69.02;95654.79;109117;1273;22549;-81
2023/03/25 10:06:01;;;;;;;4.80;3.40;;;;;;;14.25;68.19;95650.52;108987;1271;22556;-81
2023/03/25 10:09:00;;;;;;;;;;;;;;;;;;;;;
2023/03/25 10:11:42;;;;;;;4.10;3.10;;;;;;;14.05;66.54;95643.89;108976;1274;22559;-81
2023/03/25 10:14:31;;;;;;;4.80;3.40;;;;;;;13.85;66.29;95643.13;105093;1262;5246056;-81
2023/03/25 10:17:40;;;;;;;5.50;3.10;;;;;;;13.67;66.52;95639.30;109136;1272;23861;-82
2023/03/25 10:20:41;;;;;;;5.70;3.90;;;;;;;13.52;66.70;95633.33;109173;1261;23861;-84
2023/03/25 10:23:23;;;;;;;5.70;3.50;;;;;;;13.53;66.35;95632.13;108959;1269;78872;-81
2023/03/25 10:26:21;;;;;;;;;;;;;;;;;;;;;
2023/03/25 10:29:03;;;;;;;6.70;3.00;;;;;;;13.48;65.61;95623.66;109030;1266;22756;-83
2023/03/25 10:31:49;;;;;;;6.90;3.10;;;;;;;13.79;65.02;95627.45;109105;1273;23819;-82
2023/03/25 10:34:41;;;;;;;7.30;4.10;;;;;;;14.17;63.82;95620.88;105003;1268;5462669;-82
2023/03/25 10:37:27;;;;;;;4.50;2.70;;;;;;;14.22;61.55;95614.05;109146;1266;24733;-81
2023/03/25 10:40:19;;;;;;;5.30;3.00;;;;;;;14.36;60.31;95612.52;109099;1272;22468;-82
2023/03/25 10:43:12;;;;;;;4.90;2.90;;;;;;;14.57;61.36;95604.27;109123;1269;22559;-82
2023/03/25 10:45:50;;;;;;;4.70;2.20;;;;;;;14.76;59.74;95599.54;109285;1271;23793;-81
2023/03/25 10:48:42;;;;;;;5.70;2.50;;;;;;;14.60;57.39;95602.20;109285;1272;22517;-81
2023/03/25 10:51:27;;;;;;;4.90;2.80;;;;;;;14.66;58.01;95593.64;109221;1272;22523;-81
2023/03/25 10:54:05;;;;;;;5.50;2.70;;;;;;;14.76;56.99;95595.11;109129;1268;106255;-81
2023/03/25 10:56:46;;;;;;;2.90;1.40;;;;;;;14.85;55.61;95587.11;109276;1272;22466;-81
2023/03/25 10:59:48;;;;;;;5.10;2.90;;;;;;;14.97;53.77;95580.49;109210;1272;24179;-81
2023/03/25 11:02:25;;;;;;;4.20;2.00;;;;;;;15.03;53.06;95572.21;109046;1272;22550;-81
2023/03/25 11:05:05;;;;;;;5.40;2.70;;;;;;;15.00;52.58;95570.68;107623;1269;2075306;-81
2023/03/25 11:07:49;;;;;;;3.30;1.60;;;;;;;15.03;53.04;95566.95;109243;1272;23528;-81
2023/03/25 11:10:39;;;;;;;3.10;1.40;;;;;;;15.15;51.51;95560.94;109219;1269;22580;-81
2023/03/25 11:13:28;;;;;;;4.10;1.80;;;;;;;15.16;50.03;95560.89;109256;1272;23120;-81
2023/03/25 11:16:13;;;;;;;4.70;2.30;;;;;;;15.24;48.60;95549.42;109210;1271;22660;-81
2023/03/25 11:18:47;;;;;;;3.10;1.80;;;;;;;15.00;48.94;95549.27;109333;1267;22585;-81
2023/03/25 11:21:27;;;;;;;2.90;1.50;;;;;;;14.77;49.10;95549.65;109286;1269;25093;-80
2023/03/25 11:24:00;;;;;;;3.40;1.50;;;;;;;14.50;49.36;95556.31;109180;1268;64609;-81
2023/03/25 11:26:42;;;;;;;3.90;1.30;;;;;;;14.33;49.58;95554.42;109188;1272;22548;-81
2023/03/25 11:29:29;;;;;;;;;;;;;;;;;;;;;
2023/03/25 11:32:14;;;;;;;2.50;1.30;;;;;;;14.49;49.71;95557.05;109159;1261;22470;-81
2023/03/25 11:35:02;;;;;;;4.10;1.60;;;;;;;14.74;48.79;95548.02;107663;1269;2053395;-81
2023/03/25 11:37:47;;;;;;;4.30;1.40;;;;;;;14.84;47.22;95534.85;109249;1251;22452;-81
2023/03/25 11:40:26;;;;;;;4.20;1.40;;;;;;;14.49;47.05;95534.33;109197;1272;22503;-81
2023/03/25 11:43:03;;;;;;;3.60;1.80;;;;;;;14.23;47.94;95546.52;109250;1272;22601;-81
2023/03/25 11:45:38;;;;;;;2.90;1.90;;;;;;;14.22;49.21;95551.05;109139;1269;124161;-81
2023/03/25 11:48:19;;;;;;;4.60;2.00;;;;;;;14.35;49.54;95546.34;109311;1271;22491;-81
2023/03/25 11:51:04;;;;;;;2.50;1.60;;;;;;;14.62;49.76;95545.02;109317;1271;22896;-81
2023/03/25 11:53:45;;;;;;;4.20;1.90;;;;;;;14.74;49.03;95542.14;107726;1269;2122981;-81
2023/03/25 11:56:23;;;;;;;5.70;1.80;;;;;;;14.76;49.13;95540.92;109265;1267;25319;-80
2023/03/25 11:59:00;;;;;;;1.90;1.20;;;;;;;14.62;48.71;95545.78;109265;1272;22547;-80
2023/03/25 12:01:45;;;;;;;2.40;1.40;;;;;;;14.37;48.07;95550.06;109243;1269;22612;-81
2023/03/25 12:04:21;;;;;;;3.10;1.20;;;;;;;14.13;48.31;95541.60;109209;1272;63335;-81
2023/03/25 12:07:00;;;;;;;3.70;1.60;;;;;;;13.93;48.17;95541.35;109296;1269;23756;-81
2023/03/25 12:09:34;;;;;;;3.30;1.60;;;;;;;13.69;48.97;95540.36;109249;1269;22525;-81
2023/03/25 12:12:25;;;;;;;5.00;2.20;;;;;;;13.49;49.76;95537.42;109239;1272;22522;-81
2023/03/25 12:15:09;;;;;;;4.50;2.40;;;;;;;13.35;50.52;95539.68;105383;1269;5043663;-82
2023/03/25 12:17:53;;;;;;;4.30;1.70;;;;;;;13.31;51.33;95546.85;109221;1272;24826;-81
2023/03/25 12:20:41;;;;;;;3.10;1.40;;;;;;;13.40;52.13;95544.61;109222;1272;22513;-82
2023/03/25 12:23:26;;;;;;;4.00;1.80;;;;;;;13.51;52.14;95532.55;109217;1266;25404;-83
2023/03/25 12:26:26;;;;;;;;;;;;;;;;;;;;;
2023/03/25 12:29:34;;;;;;;6.60;1.80;;;;;;;14.00;52.93;95534.05;109254;1270;22525;-85
2023/03/25 12:32:19;;;;;;;3.70;1.70;;;;;;;14.51;52.47;95526.51;109183;1272;22518;-83
2023/03/25 12:35:09;;;;;;;;;;;;;;;14.86;52.77;95523.46;109253;1272;77229;-83
2023/03/25 12:38:25;;;;;;;4.10;1.80;;;;;;;15.17;52.03;95530.35;109341;1272;22524;-82
2023/03/25 12:41:10;;;;;;;4.90;2.00;;;;;;;15.46;51.37;95529.80;109226;1263;22468;-79
2023/03/25 12:44:05;;;;;;;7.20;2.60;;;;;;;15.29;50.89;95521.73;109384;1269;22528;-79
2023/03/25 12:47:13;;;;;;;5.60;1.80;;;;;;;14.97;51.13;95528.27;109299;1271;22544;-79
2023/03/25 12:50:19;;;;;;;4.10;2.00;;;;;;;14.66;50.03;95536.55;109208;1255;22611;-79
2023/03/25 12:53:01;;;;;;;4.40;1.60;;;;;;;14.39;50.24;95541.77;109088;1268;24826;-79
2023/03/25 12:55:50;;;;;;;3.90;2.00;;;;;;;14.23;50.66;95539.61;109118;1273;34582;-79
2023/03/25 12:58:48;;;;;;;3.00;1.70;;;;;;;14.15;51.11;95536.28;109147;1273;22569;-79